createdAt,value
2019-03-16T00:01:36.644Z,85.68
2019-03-16T00:04:08.343Z,85.56
2019-03-16T00:06:40.331Z,85.56
2019-03-16T00:09:12.112Z,84.39
2019-03-16T00:11:45.213Z,83.34
2019-03-16T00:14:16.863Z,82.29
2019-03-16T00:16:48.741Z,81.73
2019-03-16T00:19:20.649Z,82.28
2019-03-16T00:21:52.533Z,83.25
2019-03-16T00:24:25.571Z,82.18
2019-03-16T00:26:57.540Z,82.26
2019-03-16T00:29:29.138Z,80.96
2019-03-16T00:32:13.001Z,80.76
2019-03-16T00:34:34.974Z,80.63
2019-03-16T00:37:06.862Z,80.36
2019-03-16T00:39:38.703Z,79.58
2019-03-16T00:42:11.625Z,79.20
2019-03-16T00:44:43.529Z,79.33
2019-03-16T00:47:15.403Z,78.99
2019-03-16T00:49:47.126Z,79.19
2019-03-16T00:52:19.088Z,79.35
2019-03-16T00:54:50.754Z,78.81
2019-03-16T00:57:22.620Z,77.73
2019-03-16T00:59:54.695Z,76.87
2019-03-16T01:02:27.611Z,75.69
2019-03-16T01:05:00.647Z,75.36
2019-03-16T01:07:32.430Z,74.84
2019-03-16T01:10:04.668Z,73.38
2019-03-16T01:12:37.341Z,73.02
2019-03-16T01:15:09.425Z,72.35
2019-03-16T01:17:41.288Z,72.65
2019-03-16T01:20:14.303Z,71.95
2019-03-16T01:22:47.440Z,71.48
2019-03-16T01:25:19.133Z,71.67
2019-03-16T01:27:50.869Z,70.75
2019-03-16T01:30:22.739Z,70.14
2019-03-16T01:32:54.490Z,70.33
2019-03-16T01:35:26.345Z,68.95
2019-03-16T01:37:58.229Z,68.29
2019-03-16T01:40:30.757Z,68.26
2019-03-16T01:43:02.519Z,68.16
2019-03-16T01:45:34.287Z,67.62
2019-03-16T01:48:06.217Z,67.46
2019-03-16T01:50:38.134Z,67.38
2019-03-16T01:53:10.184Z,67.19
2019-03-16T01:55:42.283Z,66.64
2019-03-16T01:58:14.014Z,66.49
2019-03-16T02:00:45.824Z,66.22
2019-03-16T02:03:18.802Z,66.09
2019-03-16T02:05:51.869Z,65.68
2019-03-16T02:08:24.240Z,65.46
2019-03-16T02:10:56.204Z,65.77
2019-03-16T02:13:28.065Z,65.29
2019-03-16T02:16:10.273Z,65.52
2019-03-16T02:18:34.164Z,65.59
2019-03-16T02:21:06.157Z,65.34
2019-03-16T02:23:38.064Z,65.63
2019-03-16T02:26:10.042Z,66.11
2019-03-16T02:28:41.786Z,65.73
2019-03-16T02:31:13.666Z,65.69
2019-03-16T02:33:45.511Z,64.91
2019-03-16T02:36:17.321Z,65.09
2019-03-16T02:38:50.812Z,64.94
2019-03-16T02:41:23.525Z,65.30
2019-03-16T02:43:55.668Z,65.22
2019-03-16T02:46:27.562Z,65.29
2019-03-16T02:49:00.243Z,65.71
2019-03-16T02:51:32.469Z,66.56
2019-03-16T02:54:04.522Z,66.49
2019-03-16T02:56:36.349Z,66.49
2019-03-16T02:59:08.133Z,66.74
2019-03-16T03:01:40.404Z,66.69
2019-03-16T03:04:12.216Z,66.60
2019-03-16T03:06:45.812Z,66.98
2019-03-16T03:09:19.442Z,66.22
2019-03-16T03:11:51.183Z,65.96
2019-03-16T03:14:23.172Z,65.66
2019-03-16T03:16:55.208Z,65.53
2019-03-16T03:19:27.029Z,65.75
2019-03-16T03:21:58.719Z,65.68
2019-03-16T03:24:30.632Z,65.40
2019-03-16T03:27:03.446Z,64.80
2019-03-16T03:29:37.797Z,65.05
2019-03-16T03:32:09.692Z,65.12
2019-03-16T03:34:41.284Z,64.83
2019-03-16T03:37:13.073Z,65.16
2019-03-16T03:39:44.938Z,62.28
2019-03-16T03:42:17.694Z,63.05
2019-03-16T03:44:49.401Z,62.78
2019-03-16T03:47:21.494Z,63.94
2019-03-16T03:49:53.209Z,64.65
2019-03-16T03:52:25.274Z,63.56
2019-03-16T03:54:57.309Z,64.09
2019-03-16T03:57:31.773Z,63.95
2019-03-16T04:00:03.456Z,64.21
2019-03-16T04:02:35.862Z,65.19
2019-03-16T04:05:07.930Z,64.92
2019-03-16T04:07:39.982Z,65.23
2019-03-16T04:10:12.662Z,63.70
2019-03-16T04:12:44.353Z,64.41
2019-03-16T04:15:15.990Z,63.93
2019-03-16T04:17:48.865Z,63.40
2019-03-16T04:20:21.637Z,62.36
2019-03-16T04:22:53.345Z,62.27
2019-03-16T04:25:25.266Z,62.43
2019-03-16T04:27:57.052Z,62.43
2019-03-16T04:30:28.729Z,62.53
2019-03-16T04:33:00.546Z,61.83
2019-03-16T04:35:32.436Z,62.32
2019-03-16T04:38:04.391Z,61.92
2019-03-16T04:40:36.283Z,59.85
2019-03-16T04:43:08.473Z,61.66
2019-03-16T04:45:40.383Z,62.02
2019-03-16T04:48:12.048Z,62.07
2019-03-16T04:50:43.819Z,60.82
2019-03-16T04:53:15.521Z,60.61
2019-03-16T04:55:47.160Z,60.63
2019-03-16T04:58:19.018Z,59.00
2019-03-16T05:00:50.862Z,59.83
2019-03-16T05:03:22.514Z,59.01
2019-03-16T05:05:54.553Z,58.65
2019-03-16T05:08:26.453Z,59.01
2019-03-16T05:10:58.408Z,59.08
2019-03-16T05:13:31.117Z,59.48
2019-03-16T05:16:02.903Z,57.91
2019-03-16T05:18:35.324Z,58.89
2019-03-16T05:21:07.233Z,59.49
2019-03-16T05:23:39.249Z,58.88
2019-03-16T05:26:10.960Z,59.14
2019-03-16T05:28:43.039Z,59.19
2019-03-16T05:31:15.750Z,60.14
2019-03-16T05:33:47.984Z,59.68
2019-03-16T05:36:20.332Z,59.61
2019-03-16T05:38:52.097Z,59.60
2019-03-16T05:41:24.103Z,59.99
2019-03-16T05:43:56.067Z,59.15
2019-03-16T05:46:27.883Z,59.15
2019-03-16T05:48:59.668Z,58.45
2019-03-16T05:51:31.383Z,59.22
2019-03-16T05:54:03.207Z,59.65
2019-03-16T05:56:34.832Z,59.40
2019-03-16T05:59:06.743Z,59.67
2019-03-16T06:01:39.754Z,59.54
2019-03-16T06:04:11.420Z,58.62
2019-03-16T06:06:43.330Z,58.11
2019-03-16T06:09:15.308Z,58.25
2019-03-16T06:11:46.894Z,58.82
2019-03-16T06:14:18.657Z,58.81
2019-03-16T06:16:50.814Z,58.34
2019-03-16T06:19:24.916Z,59.31
2019-03-16T06:21:56.718Z,58.68
2019-03-16T06:24:28.671Z,58.80
2019-03-16T06:27:00.868Z,58.95
2019-03-16T06:29:32.888Z,58.02
2019-03-16T06:32:04.950Z,58.33
2019-03-16T06:34:37.022Z,58.92
2019-03-16T06:37:09.052Z,57.99
2019-03-16T06:39:41.123Z,57.93
2019-03-16T06:42:13.028Z,57.34
2019-03-16T06:44:44.795Z,58.69
2019-03-16T06:47:16.579Z,58.30
2019-03-16T06:49:50.302Z,58.07
2019-03-16T06:52:22.114Z,58.16
2019-03-16T06:54:54.370Z,57.45
2019-03-16T06:57:28.515Z,56.12
2019-03-16T07:00:01.302Z,57.11
2019-03-16T07:02:33.160Z,56.70
2019-03-16T07:05:06.242Z,57.42
2019-03-16T07:07:38.077Z,58.42
2019-03-16T07:10:10.184Z,58.90
2019-03-16T07:12:42.017Z,58.29
2019-03-16T07:15:14.339Z,58.85
2019-03-16T07:17:46.231Z,58.58
2019-03-16T07:20:18.228Z,58.16
2019-03-16T07:22:50.041Z,58.19
2019-03-16T07:25:22.078Z,58.09
2019-03-16T07:27:53.872Z,58.29
2019-03-16T07:30:25.652Z,58.55
2019-03-16T07:32:57.402Z,58.32
2019-03-16T07:35:29.150Z,58.40
2019-03-16T07:38:00.793Z,58.32
2019-03-16T07:40:32.421Z,58.15
2019-03-16T07:43:04.057Z,58.10
2019-03-16T07:45:35.927Z,58.63
2019-03-16T07:48:07.695Z,58.41
2019-03-16T07:50:39.711Z,58.50
2019-03-16T07:53:11.529Z,58.95
2019-03-16T07:55:44.848Z,58.96
2019-03-16T07:58:16.538Z,57.88
2019-03-16T08:00:48.538Z,58.09
2019-03-16T08:03:20.382Z,58.39
2019-03-16T08:05:52.522Z,58.44
2019-03-16T08:08:24.394Z,59.20
2019-03-16T08:10:56.831Z,59.60
2019-03-16T08:13:28.746Z,59.52
2019-03-16T08:16:00.744Z,59.48
2019-03-16T08:18:32.551Z,59.34
2019-03-16T08:21:04.533Z,59.43
2019-03-16T08:23:36.729Z,59.68
2019-03-16T08:26:09.733Z,58.45
2019-03-16T08:28:42.765Z,59.03
2019-03-16T08:31:14.794Z,57.68
2019-03-16T08:33:46.530Z,58.22
2019-03-16T08:36:18.134Z,57.92
2019-03-16T08:38:49.962Z,59.22
2019-03-16T08:41:21.629Z,58.47
2019-03-16T08:43:53.605Z,58.39
2019-03-16T08:46:25.533Z,58.86
2019-03-16T08:48:57.542Z,58.65
2019-03-16T08:51:29.506Z,58.23
2019-03-16T08:54:01.362Z,58.42
2019-03-16T08:56:33.216Z,57.02
2019-03-16T08:59:05.213Z,57.68
2019-03-16T09:01:36.933Z,57.98
2019-03-16T09:04:08.726Z,58.72
2019-03-16T09:06:40.443Z,57.64
2019-03-16T09:09:12.243Z,57.26
2019-03-16T09:11:44.125Z,57.91
2019-03-16T09:14:15.924Z,57.96
2019-03-16T09:16:47.588Z,58.42
2019-03-16T09:19:21.107Z,57.63
2019-03-16T09:21:52.925Z,56.79
2019-03-16T09:24:25.218Z,57.40
2019-03-16T09:26:56.998Z,55.63
2019-03-16T09:29:29.044Z,55.01
2019-03-16T09:32:00.693Z,55.01
2019-03-16T09:34:32.534Z,56.46
2019-03-16T09:37:06.097Z,55.64
2019-03-16T09:39:37.706Z,56.29
2019-03-16T09:42:11.085Z,55.70
2019-03-16T09:44:42.872Z,55.96
2019-03-16T09:47:14.605Z,55.48
2019-03-16T09:49:47.441Z,55.31
2019-03-16T09:52:19.326Z,55.12
2019-03-16T09:54:50.910Z,54.89
2019-03-16T09:57:22.823Z,55.73
2019-03-16T09:59:54.715Z,55.54
2019-03-16T10:02:26.524Z,54.89
2019-03-16T10:04:58.233Z,54.63
2019-03-16T10:07:30.034Z,54.54
2019-03-16T10:10:01.931Z,53.65
2019-03-16T10:12:35.437Z,55.17
2019-03-16T10:15:07.723Z,55.71
2019-03-16T10:17:40.551Z,55.86
2019-03-16T10:20:12.970Z,54.45
2019-03-16T10:22:44.632Z,55.17
2019-03-16T10:25:16.479Z,53.29
2019-03-16T10:27:48.349Z,53.78
2019-03-16T10:30:20.149Z,55.04
2019-03-16T10:32:52.334Z,54.39
2019-03-16T10:35:24.622Z,55.28
2019-03-16T10:37:56.897Z,54.17
2019-03-16T10:40:28.675Z,54.92
2019-03-16T10:43:00.626Z,53.88
2019-03-16T10:45:32.875Z,54.17
2019-03-16T10:48:05.159Z,53.83
2019-03-16T10:50:37.572Z,54.21
2019-03-16T10:53:09.405Z,53.90
2019-03-16T10:55:41.362Z,54.68
2019-03-16T10:58:13.181Z,54.50
2019-03-16T11:00:45.666Z,53.90
2019-03-16T11:03:17.578Z,54.04
2019-03-16T11:05:49.349Z,53.85
2019-03-16T11:08:21.257Z,53.83
2019-03-16T11:10:53.019Z,53.92
2019-03-16T11:13:24.974Z,52.61
2019-03-16T11:15:56.692Z,52.51
2019-03-16T11:18:28.460Z,53.46
2019-03-16T11:21:00.150Z,51.84
2019-03-16T11:23:33.097Z,53.31
2019-03-16T11:26:04.896Z,52.63
2019-03-16T11:28:36.710Z,52.82
2019-03-16T11:31:08.774Z,51.28
2019-03-16T11:33:40.546Z,51.49
2019-03-16T11:36:12.302Z,52.03
2019-03-16T11:38:44.402Z,51.71
2019-03-16T11:41:16.333Z,51.44
2019-03-16T11:43:48.071Z,52.00
2019-03-16T11:46:19.982Z,51.86
2019-03-16T11:48:51.760Z,51.60
2019-03-16T11:51:24.145Z,52.27
2019-03-16T11:53:55.969Z,51.61
2019-03-16T11:56:27.760Z,52.67
2019-03-16T11:58:59.510Z,51.26
2019-03-16T12:01:31.208Z,52.15
2019-03-16T12:04:03.152Z,51.84
2019-03-16T12:06:34.932Z,49.21
2019-03-16T12:09:08.209Z,49.90
2019-03-16T12:11:39.980Z,49.98
2019-03-16T12:14:12.030Z,49.84
2019-03-16T12:16:43.620Z,49.47
2019-03-16T12:19:15.550Z,48.98
2019-03-16T12:21:47.290Z,48.70
2019-03-16T12:24:19.403Z,47.97
2019-03-16T12:26:53.168Z,48.88
2019-03-16T12:29:34.087Z,46.34
2019-03-16T12:31:59.573Z,45.00
2019-03-16T12:34:31.289Z,46.34
2019-03-16T12:37:03.068Z,46.40
2019-03-16T12:39:35.776Z,46.56
2019-03-16T12:42:07.749Z,47.23
2019-03-16T12:44:40.491Z,46.55
2019-03-16T12:47:12.240Z,48.35
2019-03-16T12:49:44.394Z,47.52
2019-03-16T12:52:16.329Z,47.28
2019-03-16T12:54:48.315Z,47.58
2019-03-16T12:57:20.524Z,47.12
2019-03-16T12:59:53.794Z,47.68
2019-03-16T13:02:26.200Z,47.92
2019-03-16T13:04:58.289Z,47.44
2019-03-16T13:07:30.291Z,47.67
2019-03-16T13:10:02.252Z,46.36
2019-03-16T13:12:33.971Z,46.68
2019-03-16T13:15:06.286Z,46.74
2019-03-16T13:17:38.517Z,46.74
2019-03-16T13:20:11.067Z,47.49
2019-03-16T13:22:43.104Z,46.59
2019-03-16T13:25:14.990Z,47.00
2019-03-16T13:27:46.949Z,47.14
2019-03-16T13:30:19.175Z,47.75
2019-03-16T13:32:50.893Z,47.68
2019-03-16T13:35:22.848Z,47.49
2019-03-16T13:37:56.191Z,47.69
2019-03-16T13:40:28.198Z,47.46
2019-03-16T13:43:00.068Z,47.85
2019-03-16T13:45:31.803Z,48.38
2019-03-16T13:48:03.492Z,48.21
2019-03-16T13:50:35.212Z,46.84
2019-03-16T13:53:07.448Z,47.76
2019-03-16T13:55:39.238Z,48.87
2019-03-16T13:58:11.178Z,48.64
2019-03-16T14:00:43.363Z,48.83
2019-03-16T14:03:15.694Z,47.73
2019-03-16T14:05:47.719Z,47.73
2019-03-16T14:08:19.930Z,47.47
2019-03-16T14:10:52.225Z,48.50
2019-03-16T14:13:24.426Z,47.62
2019-03-16T14:15:57.398Z,48.21
2019-03-16T14:18:29.320Z,48.12
2019-03-16T14:21:01.592Z,48.50
2019-03-16T14:23:33.695Z,47.58
2019-03-16T14:26:06.412Z,48.00
2019-03-16T14:28:38.092Z,48.00
2019-03-16T14:31:09.884Z,47.74
2019-03-16T14:33:42.084Z,47.85
2019-03-16T14:36:14.051Z,47.16
2019-03-16T14:38:46.285Z,47.50
2019-03-16T14:41:17.956Z,46.94
2019-03-16T14:43:49.751Z,46.59
2019-03-16T14:46:21.523Z,46.79
2019-03-16T14:48:53.297Z,45.93
2019-03-16T14:51:25.175Z,47.24
2019-03-16T14:53:57.183Z,46.07
2019-03-16T14:56:29.482Z,46.75
2019-03-16T14:59:01.384Z,47.13
2019-03-16T15:01:33.514Z,46.12
2019-03-16T15:04:06.295Z,46.38
2019-03-16T15:06:39.213Z,46.63
2019-03-16T15:09:13.113Z,45.98
2019-03-16T15:11:45.393Z,46.47
2019-03-16T15:14:21.835Z,46.70
2019-03-16T15:16:52.269Z,46.86
2019-03-16T15:19:25.457Z,45.81
2019-03-16T15:21:57.216Z,45.56
2019-03-16T15:24:29.779Z,46.27
2019-03-16T15:27:01.465Z,46.32
2019-03-16T15:29:33.273Z,46.82
2019-03-16T15:32:05.026Z,46.45
2019-03-16T15:34:36.954Z,46.29
2019-03-16T15:37:08.904Z,46.51
2019-03-16T15:39:40.828Z,45.95
2019-03-16T15:42:14.343Z,45.90
2019-03-16T15:44:48.225Z,46.70
2019-03-16T15:47:20.039Z,46.92
2019-03-16T15:49:51.800Z,46.65
2019-03-16T15:52:23.866Z,46.55
2019-03-16T15:54:55.736Z,47.09
2019-03-16T15:57:27.806Z,47.37
2019-03-16T15:59:59.432Z,47.05
2019-03-16T16:02:31.713Z,46.79
2019-03-16T16:05:03.860Z,47.12
2019-03-16T16:07:35.846Z,47.29
2019-03-16T16:10:08.140Z,47.28
2019-03-16T16:12:40.313Z,46.92
2019-03-16T16:15:13.069Z,46.96
2019-03-16T16:17:45.023Z,47.12
2019-03-16T16:20:16.811Z,47.29
2019-03-16T16:22:48.978Z,47.49
2019-03-16T16:25:20.747Z,52.03
2019-03-16T16:27:52.817Z,52.48
2019-03-16T16:30:24.401Z,54.23
2019-03-16T16:32:56.356Z,56.50
2019-03-16T16:35:28.145Z,57.43
2019-03-16T16:38:00.123Z,58.21
2019-03-16T16:40:31.992Z,60.21
2019-03-16T16:43:04.020Z,60.21
2019-03-16T16:45:35.913Z,60.32
2019-03-16T16:48:07.917Z,61.08
2019-03-16T16:50:39.934Z,61.72
2019-03-16T16:53:11.920Z,61.90
2019-03-16T16:55:43.652Z,62.10
2019-03-16T16:58:15.691Z,62.24
2019-03-16T17:00:49.269Z,62.43
2019-03-16T17:03:21.262Z,62.65
2019-03-16T17:05:53.379Z,62.86
2019-03-16T17:08:25.237Z,62.91
2019-03-16T17:10:57.329Z,63.05
2019-03-16T17:13:29.283Z,63.23
2019-03-16T17:16:01.262Z,63.10
2019-03-16T17:18:33.194Z,63.21
2019-03-16T17:21:06.030Z,63.46
2019-03-16T17:23:40.264Z,63.43
2019-03-16T17:26:13.582Z,63.22
2019-03-16T17:28:47.591Z,63.22
2019-03-16T17:31:21.642Z,63.62
2019-03-16T17:33:55.164Z,63.76
2019-03-16T17:36:27.269Z,63.87
2019-03-16T17:39:00.007Z,63.80
2019-03-16T17:41:32.181Z,63.88
2019-03-16T17:44:04.114Z,63.94
2019-03-16T17:46:35.819Z,64.19
2019-03-16T17:49:07.703Z,64.34
2019-03-16T17:51:39.606Z,64.50
2019-03-16T17:54:11.349Z,64.77
2019-03-16T17:56:42.939Z,64.77
2019-03-16T17:59:14.936Z,65.04
2019-03-16T18:01:54.592Z,65.23
2019-03-16T18:04:20.562Z,65.08
2019-03-16T18:06:52.302Z,65.52
2019-03-16T18:09:24.127Z,65.75
2019-03-16T18:11:55.898Z,65.81
2019-03-16T18:14:27.878Z,66.09
2019-03-16T18:16:59.714Z,66.34
2019-03-16T18:19:31.515Z,66.48
2019-03-16T18:22:03.716Z,66.74
2019-03-16T18:24:35.688Z,67.34
2019-03-16T18:27:07.495Z,67.52
2019-03-16T18:29:41.077Z,67.87
2019-03-16T18:32:13.120Z,68.28
2019-03-16T18:34:45.318Z,68.71
2019-03-16T18:37:16.934Z,69.11
2019-03-16T18:39:48.570Z,69.39
2019-03-16T18:42:21.175Z,69.73
2019-03-16T18:44:52.984Z,70.18
2019-03-16T18:47:24.989Z,70.24
2019-03-16T18:49:56.801Z,70.36
2019-03-16T18:52:28.517Z,70.59
2019-03-16T18:55:00.406Z,70.91
2019-03-16T18:57:32.372Z,71.13
2019-03-16T19:00:04.993Z,71.47
2019-03-16T19:02:38.355Z,71.79
2019-03-16T19:05:10.199Z,72.09
2019-03-16T19:07:42.097Z,72.50
2019-03-16T19:10:13.779Z,72.74
2019-03-16T19:12:46.134Z,72.97
2019-03-16T19:15:18.445Z,73.07
2019-03-16T19:17:58.588Z,73.29
2019-03-16T19:20:23.905Z,73.37
2019-03-16T19:22:56.040Z,73.33
2019-03-16T19:25:29.047Z,73.56
2019-03-16T19:28:00.977Z,73.64
2019-03-16T19:30:32.994Z,73.82
2019-03-16T19:33:04.904Z,74.23
2019-03-16T19:35:36.787Z,74.54
2019-03-16T19:38:08.618Z,75.04
2019-03-16T19:40:40.487Z,75.38
2019-03-16T19:43:12.330Z,76.05
2019-03-16T19:45:44.249Z,76.46
2019-03-16T19:48:16.013Z,77.08
2019-03-16T19:50:47.724Z,77.55
2019-03-16T19:53:19.447Z,77.85
2019-03-16T19:55:51.250Z,78.08
2019-03-16T19:58:23.005Z,78.75
2019-03-16T20:00:55.188Z,79.04
2019-03-16T20:03:26.917Z,79.53
2019-03-16T20:05:58.732Z,80.06
2019-03-16T20:08:30.523Z,80.31
2019-03-16T20:11:06.900Z,80.79
2019-03-16T20:13:36.619Z,80.92
2019-03-16T20:16:08.759Z,80.90
2019-03-16T20:18:40.382Z,81.12
2019-03-16T20:21:13.746Z,81.15
2019-03-16T20:23:45.673Z,81.14
2019-03-16T20:26:17.701Z,81.23
2019-03-16T20:28:49.342Z,81.47
2019-03-16T20:31:21.153Z,81.71
2019-03-16T20:33:53.237Z,81.89
2019-03-16T20:36:25.180Z,82.35
2019-03-16T20:38:56.820Z,82.59
2019-03-16T20:41:35.947Z,82.77
2019-03-16T20:44:03.664Z,82.90
2019-03-16T20:46:35.565Z,83.32
2019-03-16T20:49:07.546Z,83.09
2019-03-16T20:51:39.259Z,83.21
2019-03-16T20:54:14.508Z,83.55
2019-03-16T20:56:46.363Z,83.33
2019-03-16T20:59:19.245Z,83.63
2019-03-16T21:01:50.927Z,83.57
2019-03-16T21:04:23.010Z,83.51
2019-03-16T21:06:55.117Z,83.66
2019-03-16T21:09:26.763Z,83.64
2019-03-16T21:11:59.602Z,83.61
2019-03-16T21:14:31.861Z,83.72
2019-03-16T21:17:03.662Z,84.03
2019-03-16T21:19:35.625Z,84.01
2019-03-16T21:22:07.435Z,83.65
2019-03-16T21:24:39.298Z,83.79
2019-03-16T21:27:11.207Z,83.81
2019-03-16T21:29:42.979Z,83.87
2019-03-16T21:32:14.756Z,83.99
2019-03-16T21:34:47.040Z,84.20
2019-03-16T21:37:18.744Z,84.24
2019-03-16T21:39:50.690Z,84.19
2019-03-16T21:42:22.496Z,84.04
2019-03-16T21:44:54.336Z,83.94
2019-03-16T21:47:26.199Z,83.76
2019-03-16T21:49:58.134Z,83.76
2019-03-16T21:52:29.978Z,83.84
2019-03-16T21:55:01.896Z,83.50
2019-03-16T21:57:33.980Z,83.93
2019-03-16T22:00:07.618Z,83.70
2019-03-16T22:02:39.469Z,83.54
2019-03-16T22:05:11.482Z,83.45
2019-03-16T22:07:43.271Z,83.37
2019-03-16T22:10:15.757Z,83.19
2019-03-16T22:12:48.625Z,82.92
2019-03-16T22:15:21.849Z,82.96
2019-03-16T22:17:54.006Z,82.92
2019-03-16T22:20:25.872Z,83.09
2019-03-16T22:22:58.026Z,82.97
2019-03-16T22:25:29.973Z,82.96
2019-03-16T22:28:02.421Z,83.22
2019-03-16T22:30:34.150Z,83.74
2019-03-16T22:33:06.799Z,83.56
2019-03-16T22:35:38.629Z,83.55
2019-03-16T22:38:11.053Z,83.65
2019-03-16T22:40:42.790Z,83.54
2019-03-16T22:43:15.738Z,83.64
2019-03-16T22:45:47.485Z,83.48
2019-03-16T22:48:20.797Z,83.51
2019-03-16T22:50:52.598Z,83.70
2019-03-16T22:53:24.447Z,84.01
2019-03-16T22:55:57.531Z,84.49
2019-03-16T22:58:29.348Z,84.20
2019-03-16T23:01:02.268Z,84.39
2019-03-16T23:03:34.532Z,84.90
2019-03-16T23:06:06.607Z,84.87
2019-03-16T23:08:39.163Z,85.00
2019-03-16T23:11:11.353Z,85.15
2019-03-16T23:13:43.608Z,85.82
2019-03-16T23:16:15.598Z,86.15
2019-03-16T23:18:47.534Z,86.17
2019-03-16T23:21:19.597Z,86.75
2019-03-16T23:23:51.329Z,87.23
2019-03-16T23:26:23.373Z,87.62
2019-03-16T23:28:56.417Z,87.96
2019-03-16T23:31:28.520Z,88.10
2019-03-16T23:34:00.549Z,88.51
2019-03-16T23:36:32.392Z,88.78
2019-03-16T23:39:05.041Z,88.65
2019-03-16T23:41:38.261Z,88.79
2019-03-16T23:44:10.067Z,88.93
2019-03-16T23:46:41.665Z,89.09
2019-03-16T23:49:13.652Z,89.01
2019-03-16T23:51:46.686Z,88.93
2019-03-16T23:54:18.613Z,88.89
2019-03-16T23:56:50.376Z,89.02
2019-03-16T23:59:22.148Z,89.29
